Time;durP1;ratioP1;P1;durP2;ratioP2;P2;SDS_P1;SDS_P2;PMS_P1;PMS_P2;Temp;Humidity;BMP_temperature;BMP_pressure;BME280_temperature;BME280_humidity;BME280_pressure;Samples;Min_cycle;Max_cycle;Signal;HPM_P1;HPM_P2
2021/10/04 00:02:45;;;;;;;1.73;1.20;;;20.20;49.50;;;;;;8232769;28;20039;-50
2021/10/04 00:06:46;;;;;;;2.00;1.23;;;20.20;49.50;;;;;;8232805;28;20039;-49
2021/10/04 00:10:47;;;;;;;1.50;1.30;;;20.20;49.50;;;;;;8231103;28;20039;-48
2021/10/04 00:14:47;;;;;;;1.43;1.23;;;20.20;49.50;;;;;;8231962;28;20269;-50
2021/10/04 00:18:48;;;;;;;1.90;1.10;;;20.20;49.50;;;;;;8233081;28;20415;-50
2021/10/04 00:22:49;;;;;;;1.20;1.10;;;20.20;49.50;;;;;;8232374;28;20031;-50
2021/10/04 00:26:49;;;;;;;1.33;1.15;;;20.20;49.50;;;;;;8231928;28;20035;-49
2021/10/04 00:30:50;;;;;;;1.60;1.40;;;20.20;49.50;;;;;;8232235;28;20042;-49
2021/10/04 00:34:50;;;;;;;0.90;0.90;;;20.20;49.50;;;;;;8232068;28;20042;-50
2021/10/04 00:38:51;;;;;;;1.33;1.10;;;20.20;49.50;;;;;;8232317;28;20069;-49
2021/10/04 00:42:53;;;;;;;1.40;1.17;;;20.20;49.50;;;;;;8231932;28;20039;-50
2021/10/04 00:46:53;;;;;;;1.42;1.30;;;20.20;49.50;;;;;;8232121;28;20130;-49
2021/10/04 00:50:54;;;;;;;1.53;1.17;;;20.20;49.50;;;;;;8231465;28;20042;-50
2021/10/04 00:54:55;;;;;;;1.13;0.93;;;20.20;49.50;;;;;;8232638;28;20515;-50
2021/10/04 00:58:55;;;;;;;1.27;1.00;;;20.20;49.50;;;;;;8237427;28;20042;-49
2021/10/04 01:02:57;;;;;;;1.20;1.10;;;20.10;49.50;;;;;;8237266;28;20027;-50
2021/10/04 01:06:58;;;;;;;1.38;0.90;;;20.10;49.40;;;;;;8237575;28;20031;-50
2021/10/04 01:10:59;;;;;;;1.23;0.95;;;20.10;49.40;;;;;;8236888;28;20111;-49
2021/10/04 01:15:00;;;;;;;1.30;1.03;;;20.10;49.40;;;;;;8237331;28;20050;-49
2021/10/04 01:19:00;;;;;;;1.23;0.83;;;20.10;49.40;;;;;;8237153;28;20035;-49
2021/10/04 01:23:01;;;;;;;1.83;1.13;;;20.20;49.50;;;;;;8237008;28;20034;-53
2021/10/04 01:27:03;;;;;;;0.95;0.82;;;20.10;49.40;;;;;;8236540;28;20290;-53
2021/10/04 01:31:04;;;;;;;1.88;1.10;;;20.10;49.40;;;;;;8237419;28;20027;-50
2021/10/04 01:35:05;;;;;;;1.33;1.10;;;20.10;49.70;;;;;;8236748;28;20101;-48
2021/10/04 01:39:06;;;;;;;1.05;0.90;;;20.10;49.40;;;;;;8236092;28;20034;-49
2021/10/04 01:43:07;;;;;;;1.00;0.80;;;20.10;49.50;;;;;;8236551;28;20027;-49
2021/10/04 01:47:07;;;;;;;1.13;1.03;;;20.10;49.50;;;;;;8237083;28;20035;-49
2021/10/04 01:51:08;;;;;;;2.50;1.07;;;20.10;49.50;;;;;;8235829;28;20145;-50
2021/10/04 01:55:10;;;;;;;1.30;1.10;;;20.10;49.50;;;;;;8236468;28;20121;-50
2021/10/04 01:59:10;;;;;;;1.30;1.20;;;20.10;49.50;;;;;;8235800;28;20082;-49
2021/10/04 02:03:11;;;;;;;1.40;1.10;;;20.10;49.50;;;;;;8235387;28;20404;-49
2021/10/04 02:07:12;;;;;;;0.93;0.80;;;20.10;49.50;;;;;;8236288;28;20035;-49
2021/10/04 02:11:12;;;;;;;1.03;0.80;;;20.10;49.50;;;;;;8235812;28;20060;-49
2021/10/04 02:15:13;;;;;;;1.10;1.00;;;20.10;49.50;;;;;;8235062;28;20043;-48
2021/10/04 02:19:14;;;;;;;0.80;0.80;;;20.10;49.60;;;;;;8235359;28;20101;-49
2021/10/04 02:23:15;;;;;;;1.33;1.00;;;20.10;49.50;;;;;;8236094;28;20113;-50
2021/10/04 02:27:16;;;;;;;1.25;1.02;;;20.10;49.50;;;;;;8234966;28;20035;-49
2021/10/04 02:31:17;;;;;;;1.00;0.90;;;20.10;49.60;;;;;;8234961;28;20510;-49
2021/10/04 02:35:18;;;;;;;1.10;1.00;;;20.10;49.50;;;;;;8234866;28;20039;-49
2021/10/04 02:39:18;;;;;;;0.80;0.80;;;20.10;49.50;;;;;;8235017;28;20043;-51
2021/10/04 02:43:20;;;;;;;1.10;0.87;;;20.00;49.50;;;;;;8234618;28;20039;-48
2021/10/04 02:47:21;;;;;;;1.00;1.00;;;20.10;49.50;;;;;;8234530;28;20057;-49
2021/10/04 02:51:21;;;;;;;0.98;0.88;;;20.10;49.60;;;;;;8233854;28;20039;-49
2021/10/04 02:55:22;;;;;;;1.10;1.00;;;20.00;49.50;;;;;;8234108;28;20432;-49
2021/10/04 02:59:23;;;;;;;0.98;0.90;;;20.00;49.50;;;;;;8235004;28;20034;-50
2021/10/04 03:03:23;;;;;;;1.00;0.77;;;20.00;49.50;;;;;;8233624;28;20054;-49
2021/10/04 03:07:25;;;;;;;1.37;0.90;;;20.00;49.50;;;;;;8233990;28;20049;-51
2021/10/04 03:11:25;;;;;;;0.80;0.73;;;20.00;49.50;;;;;;8233745;28;20121;-49
2021/10/04 03:15:26;;;;;;;1.33;1.03;;;20.00;49.50;;;;;;8234086;28;20043;-49
2021/10/04 03:19:27;;;;;;;1.33;0.93;;;20.00;49.50;;;;;;8232879;28;20352;-49
2021/10/04 03:23:28;;;;;;;1.20;0.93;;;20.00;49.60;;;;;;8233415;28;20035;-49
2021/10/04 03:27:28;;;;;;;1.20;1.00;;;20.00;49.50;;;;;;8232753;28;20035;-49
2021/10/04 03:31:29;;;;;;;1.50;1.10;;;20.00;49.60;;;;;;8233333;28;20057;-49
2021/10/04 03:35:29;;;;;;;1.23;0.97;;;20.00;49.50;;;;;;8233912;28;20086;-49
2021/10/04 03:39:31;;;;;;;0.80;0.80;;;20.00;49.60;;;;;;8232547;28;20062;-50
2021/10/04 03:43:31;;;;;;;1.15;1.00;;;20.00;49.60;;;;;;8233166;28;20031;-49
2021/10/04 03:47:32;;;;;;;0.95;0.85;;;20.00;49.50;;;;;;8232567;28;20069;-47
2021/10/04 03:51:33;;;;;;;1.10;0.80;;;20.00;49.60;;;;;;8233252;28;20027;-49
2021/10/04 03:55:33;;;;;;;0.80;0.80;;;20.00;49.60;;;;;;8232555;28;20543;-48
2021/10/04 03:59:33;;;;;;;1.10;0.90;;;20.00;49.50;;;;;;8232158;28;20054;-47
2021/10/04 04:03:34;;;;;;;0.80;0.80;;;20.00;49.60;;;;;;8232498;28;20035;-49
2021/10/04 04:07:35;;;;;;;0.90;0.60;;;20.00;49.60;;;;;;8233555;28;20027;-49
2021/10/04 04:11:35;;;;;;;0.98;0.82;;;20.00;49.60;;;;;;8231245;28;20067;-49
2021/10/04 04:15:36;;;;;;;1.07;0.70;;;20.00;49.60;;;;;;8232400;28;20643;-49
2021/10/04 04:19:36;;;;;;;1.00;0.60;;;20.00;49.60;;;;;;8232325;28;20078;-49
2021/10/04 04:23:37;;;;;;;0.90;0.80;;;20.00;49.60;;;;;;8231812;28;20472;-49
2021/10/04 04:27:38;;;;;;;1.03;0.80;;;20.00;49.60;;;;;;8233028;28;20039;-49
2021/10/04 04:31:39;;;;;;;0.80;0.77;;;20.00;49.60;;;;;;8236036;28;20054;-48
2021/10/04 04:35:39;;;;;;;1.10;0.77;;;20.00;49.60;;;;;;8237995;28;20381;-50
2021/10/04 04:39:40;;;;;;;1.50;0.77;;;20.00;49.50;;;;;;8238505;28;20074;-49
2021/10/04 04:43:40;;;;;;;1.10;0.90;;;20.00;49.60;;;;;;8239084;28;20116;-49
2021/10/04 04:47:41;;;;;;;0.70;0.70;;;20.00;49.60;;;;;;8237675;28;20437;-49
2021/10/04 04:51:42;;;;;;;0.90;0.80;;;20.00;49.60;;;;;;8238298;28;20129;-48
2021/10/04 04:55:42;;;;;;;1.50;0.90;;;20.00;49.60;;;;;;8237923;28;20389;-49
2021/10/04 04:59:43;;;;;;;1.07;0.80;;;20.00;49.50;;;;;;8238081;28;20035;-50
2021/10/04 05:03:43;;;;;;;1.10;0.90;;;20.00;49.50;;;;;;8237593;28;20066;-49
2021/10/04 05:07:44;;;;;;;0.60;0.60;;;20.00;49.50;;;;;;8237721;28;20118;-49
2021/10/04 05:11:45;;;;;;;0.70;0.60;;;20.00;49.60;;;;;;8237066;28;20039;-50
2021/10/04 05:15:45;;;;;;;0.63;0.63;;;20.00;49.60;;;;;;8237186;28;20046;-49
2021/10/04 05:19:46;;;;;;;1.50;0.97;;;20.00;49.60;;;;;;8238135;28;20263;-49
2021/10/04 05:23:47;;;;;;;0.80;0.80;;;20.00;49.50;;;;;;8236772;28;20031;-50
2021/10/04 05:27:47;;;;;;;0.80;0.80;;;20.00;49.60;;;;;;8237065;28;20035;-49
2021/10/04 05:31:48;;;;;;;0.77;0.77;;;20.00;49.60;;;;;;8236757;28;20392;-49
2021/10/04 05:35:48;;;;;;;0.60;0.60;;;20.00;49.60;;;;;;8236955;28;20050;-50
2021/10/04 05:39:49;;;;;;;1.40;1.00;;;20.00;49.60;;;;;;8236843;28;20041;-52
2021/10/04 05:43:50;;;;;;;0.83;0.70;;;20.00;49.50;;;;;;8236105;28;20117;-50
2021/10/04 05:47:50;;;;;;;1.33;0.87;;;20.00;49.60;;;;;;8235844;28;20049;-48
2021/10/04 05:51:51;;;;;;;0.90;0.63;;;20.00;49.60;;;;;;8236517;28;20117;-49
2021/10/04 05:55:52;;;;;;;0.70;0.70;;;20.00;49.60;;;;;;8236433;28;20503;-49
2021/10/04 05:59:52;;;;;;;1.30;0.90;;;20.00;49.60;;;;;;8235613;28;20038;-49
2021/10/04 06:03:53;;;;;;;0.70;0.70;;;20.00;49.60;;;;;;8236023;28;20046;-49
2021/10/04 06:07:53;;;;;;;0.87;0.83;;;20.00;49.60;;;;;;8235914;28;20122;-48
2021/10/04 06:11:54;;;;;;;1.60;0.90;;;20.00;49.60;;;;;;8235855;28;20041;-49
2021/10/04 06:15:54;;;;;;;1.03;0.90;;;20.00;49.60;;;;;;8235536;28;20130;-49
2021/10/04 06:19:55;;;;;;;1.20;0.63;;;20.00;49.60;;;;;;8235436;28;20443;-50
2021/10/04 06:23:56;;;;;;;0.85;0.70;;;20.00;49.60;;;;;;8234945;28;20114;-50
2021/10/04 06:27:57;;;;;;;0.90;0.80;;;20.00;49.60;;;;;;8235866;28;20428;-52
2021/10/04 06:31:57;;;;;;;0.68;0.60;;;20.00;49.60;;;;;;8234962;28;20285;-52
2021/10/04 06:35:58;;;;;;;0.83;0.80;;;20.00;49.60;;;;;;8234209;28;20043;-48
2021/10/04 06:39:58;;;;;;;0.67;0.67;;;20.00;49.60;;;;;;8234728;28;20074;-48
2021/10/04 06:43:59;;;;;;;0.80;0.80;;;20.00;49.60;;;;;;8234825;28;20101;-49
2021/10/04 06:48:00;;;;;;;0.67;0.60;;;20.00;49.60;;;;;;8234851;28;20031;-49
2021/10/04 06:52:03;;;;;;;0.63;0.50;;;20.00;49.60;;;;;;8234515;28;20042;-49
2021/10/04 06:56:03;;;;;;;0.98;0.77;;;20.00;49.60;;;;;;8233168;28;20058;-49
2021/10/04 07:00:06;;;;;;;0.80;0.80;;;20.00;49.60;;;;;;8233944;28;20447;-49
2021/10/04 07:04:07;;;;;;;1.83;0.80;;;19.90;49.60;;;;;;8234606;28;20031;-48
2021/10/04 07:08:08;;;;;;;2.35;0.88;;;19.90;49.60;;;;;;8233922;28;20497;-49
2021/10/04 07:12:08;;;;;;;1.03;0.80;;;19.90;49.60;;;;;;8232669;28;20484;-48
2021/10/04 07:16:12;;;;;;;0.90;0.73;;;20.00;49.60;;;;;;8234043;28;20685;-48
2021/10/04 07:20:12;;;;;;;1.23;0.77;;;20.00;49.60;;;;;;8234494;28;20333;-48
2021/10/04 07:24:13;;;;;;;0.73;0.73;;;20.00;49.60;;;;;;8233272;28;20035;-49
2021/10/04 07:28:13;;;;;;;0.70;0.70;;;20.00;49.60;;;;;;8233550;28;20039;-48
2021/10/04 07:32:14;;;;;;;1.03;0.83;;;19.90;49.60;;;;;;8233210;28;20042;-50
2021/10/04 07:36:15;;;;;;;0.60;0.50;;;20.00;49.60;;;;;;8232779;28;20047;-48
2021/10/04 07:40:16;;;;;;;0.90;0.90;;;20.00;49.60;;;;;;8234002;28;20058;-48
2021/10/04 07:44:20;;;;;;;2.05;0.68;;;20.00;49.60;;;;;;8231167;28;20125;-46
2021/10/04 07:48:21;;;;;;;0.70;0.52;;;20.00;49.60;;;;;;8229286;28;20050;-48
2021/10/04 07:52:21;;;;;;;0.60;0.60;;;19.90;49.60;;;;;;8229104;28;20062;-49
2021/10/04 07:56:23;;;;;;;1.00;0.70;;;19.90;49.60;;;;;;8229030;28;20034;-50
2021/10/04 08:00:24;;;;;;;1.17;0.80;;;19.90;49.60;;;;;;8228568;28;20787;-49
2021/10/04 08:04:26;;;;;;;0.90;0.70;;;19.90;49.60;;;;;;8232012;28;20075;-52
2021/10/04 08:08:27;;;;;;;0.60;0.60;;;19.90;49.60;;;;;;8232552;28;20082;-48
2021/10/04 08:12:27;;;;;;;0.80;0.70;;;19.90;49.60;;;;;;8231510;28;20122;-47
2021/10/04 08:16:28;;;;;;;1.27;0.93;;;19.90;49.60;;;;;;8233179;28;20038;-47
2021/10/04 08:20:28;;;;;;;0.57;0.57;;;19.90;49.60;;;;;;8232633;28;20138;-49
2021/10/04 08:24:29;;;;;;;0.80;0.60;;;19.90;49.60;;;;;;8231789;28;20329;-45
2021/10/04 08:28:30;;;;;;;0.83;0.77;;;19.90;49.60;;;;;;8231321;28;20488;-48
2021/10/04 08:32:31;;;;;;;0.98;0.80;;;19.90;49.60;;;;;;8232545;28;20051;-50
2021/10/04 08:36:33;;;;;;;1.53;0.80;;;19.90;49.60;;;;;;8231512;28;20090;-50
2021/10/04 08:40:34;;;;;;;0.98;0.73;;;19.90;49.60;;;;;;8231345;28;20030;-48
2021/10/04 08:44:36;;;;;;;1.57;0.80;;;19.90;49.60;;;;;;8230617;28;20492;-47
2021/10/04 08:48:38;;;;;;;1.30;0.85;;;19.90;49.60;;;;;;8232332;28;20553;-47
2021/10/04 08:52:38;;;;;;;1.00;0.52;;;19.90;49.60;;;;;;8231873;28;20453;-50
2021/10/04 08:56:40;;;;;;;1.20;0.70;;;19.90;49.60;;;;;;8230641;28;20035;-48
2021/10/04 09:00:40;;;;;;;1.20;0.57;;;19.90;49.60;;;;;;8231063;28;20399;-47
2021/10/04 09:04:41;;;;;;;0.83;0.60;;;19.90;49.60;;;;;;8231509;28;20042;-47
2021/10/04 09:09:03;;;;;;;0.52;0.50;;;19.90;49.60;;;;;;8231405;28;20047;-46
2021/10/04 09:13:11;;;;;;;0.68;0.60;;;19.90;49.60;;;;;;8231281;28;20047;-48
2021/10/04 09:17:13;;;;;;;1.58;0.98;;;19.90;49.60;;;;;;8232541;28;20137;-47
2021/10/04 09:21:14;;;;;;;0.98;0.70;;;19.90;49.60;;;;;;8236653;28;20503;-49
2021/10/04 09:25:15;;;;;;;1.07;0.77;;;19.90;49.60;;;;;;8237012;28;20050;-47
2021/10/04 09:29:15;;;;;;;1.13;0.70;;;19.90;49.60;;;;;;8237010;28;20404;-47
2021/10/04 09:33:16;;;;;;;0.60;0.60;;;19.90;49.60;;;;;;8236013;28;20050;-49
2021/10/04 09:37:25;;;;;;;1.20;0.83;;;19.90;49.60;;;;;;8236302;28;20444;-50
2021/10/04 09:41:26;;;;;;;0.88;0.55;;;19.90;49.60;;;;;;8236373;28;20035;-50
2021/10/04 09:45:26;;;;;;;0.90;0.80;;;19.90;49.50;;;;;;8236396;28;20035;-49
2021/10/04 09:49:28;;;;;;;1.90;0.67;;;19.90;50.10;;;;;;8236278;28;20042;-50
2021/10/04 09:53:28;;;;;;;0.65;0.60;;;20.00;49.60;;;;;;8236510;28;20047;-47
2021/10/04 09:57:29;;;;;;;1.07;0.60;;;20.00;49.60;;;;;;8235193;28;20046;-48
2021/10/04 10:01:30;;;;;;;2.27;0.93;;;20.00;49.60;;;;;;8231865;28;20122;-49
2021/10/04 10:05:33;;;;;;;1.33;0.90;;;19.90;49.50;;;;;;8231551;28;20035;-50
2021/10/04 10:09:38;;;;;;;1.20;0.75;;;20.00;49.60;;;;;;8232437;28;20558;-51
2021/10/04 10:13:40;;;;;;;1.35;0.70;;;20.00;49.60;;;;;;8232952;28;20435;-51
2021/10/04 10:17:41;;;;;;;0.70;0.63;;;20.00;49.60;;;;;;8231208;28;20472;-50
2021/10/04 10:21:41;;;;;;;0.95;0.63;;;20.00;49.60;;;;;;8232069;28;20399;-48
2021/10/04 10:25:45;;;;;;;0.77;0.70;;;20.00;49.60;;;;;;8232437;28;20038;-49
2021/10/04 10:29:46;;;;;;;1.08;0.70;;;20.00;49.60;;;;;;8232285;28;20026;-48
2021/10/04 10:33:50;;;;;;;1.07;0.70;;;20.00;49.60;;;;;;8230903;28;20047;-48
2021/10/04 10:37:51;;;;;;;0.80;0.50;;;20.00;49.60;;;;;;8227926;28;20039;-50
2021/10/04 10:42:18;;;;;;;0.90;0.70;;;20.00;49.50;;;;;;8232588;28;20042;-48
2021/10/04 10:47:06;;;;;;;2.72;0.80;;;20.00;49.60;;;;;;8226813;28;20388;-52
2021/10/04 10:51:10;;;;;;;2.00;0.82;;;20.00;49.50;;;;;;8223976;28;20050;-50
2021/10/04 10:55:20;;;;;;;1.15;0.90;;;20.10;49.50;;;;;;8227478;28;20047;-48
2021/10/04 10:59:27;;;;;;;0.98;0.85;;;20.10;49.50;;;;;;8223278;28;20035;-49
2021/10/04 11:03:28;;;;;;;1.00;0.80;;;20.10;49.50;;;;;;8230015;28;20037;-48
2021/10/04 11:08:08;;;;;;;0.77;0.63;;;20.10;49.50;;;;;;8229840;28;20031;-51
2021/10/04 11:12:09;;;;;;;0.90;0.73;;;20.10;49.50;;;;;;8213811;28;20050;-47
2021/10/04 11:16:09;;;;;;;0.80;0.70;;;20.10;49.50;;;;;;8231534;28;20059;-48
2021/10/04 11:20:16;;;;;;;1.30;0.70;;;20.10;49.50;;;;;;8234374;28;20542;-47
2021/10/04 11:24:19;;;;;;;0.88;0.60;;;20.10;49.50;;;;;;8234070;28;20455;-49
2021/10/04 11:28:41;;;;;;;1.42;0.82;;;20.10;49.40;;;;;;8233825;28;20042;-48
2021/10/04 11:33:01;;;;;;;0.85;0.77;;;20.10;49.40;;;;;;8233042;28;20522;-49
2021/10/04 11:37:02;;;;;;;0.70;0.50;;;20.20;50.00;;;;;;8233355;28;20093;-48
2021/10/04 11:41:04;;;;;;;1.10;0.77;;;20.20;49.40;;;;;;8232981;28;20037;-48
2021/10/04 11:45:09;;;;;;;2.85;0.90;;;20.20;49.40;;;;;;8233816;28;20043;-49
2021/10/04 11:49:18;;;;;;;1.10;0.77;;;20.20;49.40;;;;;;8233365;28;20058;-49
2021/10/04 11:53:19;;;;;;;0.73;0.60;;;20.20;49.30;;;;;;8232853;28;20050;-47
2021/10/04 11:57:20;;;;;;;1.27;0.50;;;20.20;49.30;;;;;;8232517;28;20130;-48
2021/10/04 12:01:32;;;;;;;0.80;0.80;;;20.20;49.30;;;;;;8232846;28;20556;-48
2021/10/04 12:05:33;;;;;;;0.88;0.77;;;20.20;49.30;;;;;;8232998;28;20039;-47
2021/10/04 12:09:33;;;;;;;1.40;0.90;;;20.30;49.40;;;;;;8232972;28;20049;-48
2021/10/04 12:13:44;;;;;;;0.73;0.60;;;20.20;49.30;;;;;;8232765;28;20059;-48
2021/10/04 12:17:45;;;;;;;1.03;0.93;;;20.20;49.30;;;;;;8232049;28;20286;-47
2021/10/04 12:21:50;;;;;;;0.97;0.70;;;20.30;49.40;;;;;;8233073;28;20425;-48
2021/10/04 12:25:53;;;;;;;0.70;0.70;;;20.20;49.30;;;;;;8232453;28;20285;-48
2021/10/04 12:29:59;;;;;;;1.58;0.57;;;20.30;49.40;;;;;;8231830;28;20039;-48
2021/10/04 12:34:00;;;;;;;0.88;0.50;;;20.20;49.30;;;;;;8232091;28;20051;-48
2021/10/04 12:38:20;;;;;;;;;;;20.20;49.30;;;;;;8231178;28;20035;-48
2021/10/04 12:42:22;;;;;;;0.90;0.68;;;20.20;49.30;;;;;;8232543;28;20279;-50
2021/10/04 12:46:23;;;;;;;1.23;0.68;;;20.20;49.30;;;;;;8232165;28;20038;-47
2021/10/04 12:50:30;;;;;;;1.25;0.80;;;20.30;49.30;;;;;;8232268;28;20511;-47
2021/10/04 12:54:36;;;;;;;0.52;0.52;;;20.30;49.30;;;;;;8237022;28;20039;-48
2021/10/04 12:58:40;;;;;;;0.75;0.52;;;20.20;49.20;;;;;;8237836;28;20030;-48
2021/10/04 13:02:41;;;;;;;0.65;0.47;;;20.30;49.30;;;;;;8237149;28;20046;-48
2021/10/04 13:06:44;;;;;;;1.30;0.60;;;20.30;49.30;;;;;;8238041;28;20063;-49
2021/10/04 13:10:45;;;;;;;0.98;0.65;;;20.30;49.30;;;;;;8237441;28;20476;-49
2021/10/04 13:14:45;;;;;;;0.82;0.55;;;20.30;49.30;;;;;;8237013;28;20042;-48
2021/10/04 13:18:46;;;;;;;0.80;0.60;;;20.30;49.20;;;;;;8237933;28;20031;-49
2021/10/04 13:22:48;;;;;;;0.67;0.60;;;20.30;49.20;;;;;;8237172;28;20045;-50
2021/10/04 13:26:49;;;;;;;0.95;0.70;;;20.30;49.20;;;;;;8236496;28;20792;-48
2021/10/04 13:30:50;;;;;;;0.95;0.70;;;20.30;49.20;;;;;;8236898;28;20039;-48
2021/10/04 13:34:51;;;;;;;0.68;0.50;;;20.30;49.20;;;;;;8236803;28;20053;-47
2021/10/04 13:38:52;;;;;;;0.73;0.70;;;20.30;49.20;;;;;;8237069;28;20045;-48
2021/10/04 13:42:53;;;;;;;0.60;0.60;;;20.30;49.20;;;;;;8236271;28;20034;-49
2021/10/04 13:46:53;;;;;;;0.60;0.60;;;20.30;49.30;;;;;;8236410;28;20392;-48
2021/10/04 13:50:55;;;;;;;0.87;0.77;;;20.30;49.20;;;;;;8235893;28;20046;-47
2021/10/04 13:54:56;;;;;;;0.88;0.68;;;20.30;49.20;;;;;;8237380;28;20097;-48
2021/10/04 13:58:57;;;;;;;0.47;0.47;;;20.30;49.20;;;;;;8235867;28;20038;-47
2021/10/04 14:02:58;;;;;;;0.70;0.60;;;20.30;49.20;;;;;;8234919;28;20361;-49
2021/10/04 14:06:59;;;;;;;0.60;0.60;;;20.30;49.20;;;;;;8235932;28;20035;-49
2021/10/04 14:10:59;;;;;;;0.87;0.80;;;20.30;49.20;;;;;;8236107;28;20066;-48
2021/10/04 14:15:00;;;;;;;1.40;0.87;;;20.30;49.20;;;;;;8234856;28;20117;-48
2021/10/04 14:19:00;;;;;;;0.70;0.70;;;20.40;49.20;;;;;;8235262;28;20086;-48
2021/10/04 14:23:01;;;;;;;0.80;0.70;;;20.30;49.20;;;;;;8235043;28;20275;-49
2021/10/04 14:27:02;;;;;;;0.77;0.60;;;20.30;49.20;;;;;;8234662;28;20123;-47
2021/10/04 14:31:04;;;;;;;0.60;0.60;;;20.30;49.20;;;;;;8235637;28;20039;-48
2021/10/04 14:35:07;;;;;;;0.68;0.60;;;20.30;49.20;;;;;;8234786;28;20054;-48
2021/10/04 14:39:08;;;;;;;0.50;0.50;;;20.40;49.20;;;;;;8234327;28;20572;-48
2021/10/04 14:43:09;;;;;;;0.57;0.50;;;20.40;49.20;;;;;;8234740;28;20106;-48
2021/10/04 14:47:09;;;;;;;1.13;0.87;;;20.40;49.20;;;;;;8235183;28;20039;-48
2021/10/04 14:51:10;;;;;;;0.50;0.50;;;20.40;49.20;;;;;;8233500;28;20042;-48
2021/10/04 14:55:11;;;;;;;0.65;0.50;;;20.40;49.20;;;;;;8234364;28;20492;-48
2021/10/04 14:59:12;;;;;;;0.82;0.63;;;20.40;49.10;;;;;;8233748;28;20102;-47
2021/10/04 15:03:13;;;;;;;0.82;0.68;;;20.40;49.20;;;;;;8233502;28;20034;-48
2021/10/04 15:07:13;;;;;;;0.90;0.60;;;20.40;49.20;;;;;;8234525;28;20038;-48
2021/10/04 15:11:14;;;;;;;0.60;0.53;;;20.40;49.20;;;;;;8233701;28;20118;-48
2021/10/04 15:15:14;;;;;;;0.77;0.50;;;20.40;49.20;;;;;;8232607;28;20404;-52
2021/10/04 15:19:15;;;;;;;1.13;0.50;;;20.40;49.20;;;;;;8233643;28;20034;-49
2021/10/04 15:23:15;;;;;;;1.13;0.80;;;20.40;49.20;;;;;;8227898;28;20039;-48
2021/10/04 15:27:16;;;;;;;1.80;0.70;;;20.40;49.30;;;;;;8226323;28;20037;-49
2021/10/04 15:31:17;;;;;;;0.87;0.70;;;20.30;49.40;;;;;;8231476;28;20328;-50
2021/10/04 15:35:18;;;;;;;0.85;0.75;;;20.30;49.20;;;;;;8232933;28;20519;-53
2021/10/04 15:39:18;;;;;;;1.15;0.77;;;20.30;49.20;;;;;;8233191;28;20023;-49
2021/10/04 15:43:19;;;;;;;1.10;0.90;;;20.30;49.20;;;;;;8233339;28;20043;-50
2021/10/04 15:47:22;;;;;;;1.17;0.90;;;20.30;49.20;;;;;;8232981;28;20043;-50
2021/10/04 15:51:22;;;;;;;1.27;0.77;;;20.30;49.10;;;;;;8232207;28;20102;-51
2021/10/04 15:55:23;;;;;;;0.57;0.57;;;20.40;49.20;;;;;;8232709;28;20070;-49
2021/10/04 15:59:24;;;;;;;2.92;0.90;;;20.30;49.10;;;;;;8233353;28;20267;-51
2021/10/04 16:03:24;;;;;;;1.27;0.90;;;20.30;49.10;;;;;;8232058;28;20042;-49
2021/10/04 16:07:27;;;;;;;1.30;0.80;;;20.30;49.10;;;;;;8232527;28;20066;-52
2021/10/04 16:11:28;;;;;;;1.55;0.82;;;20.40;49.20;;;;;;8231334;28;20041;-52
2021/10/04 16:15:29;;;;;;;1.63;0.90;;;20.40;49.10;;;;;;8231494;28;20034;-51
2021/10/04 16:19:29;;;;;;;1.93;1.57;;;20.40;49.20;;;;;;8232509;28;20101;-50
2021/10/04 16:23:30;;;;;;;0.87;0.73;;;20.30;49.60;;;;;;8232244;28;20039;-50
2021/10/04 16:27:30;;;;;;;1.30;0.87;;;20.30;49.10;;;;;;8235575;28;20034;-53
2021/10/04 16:31:31;;;;;;;1.80;1.00;;;20.30;49.10;;;;;;8239111;28;20114;-48
2021/10/04 16:35:32;;;;;;;1.03;0.63;;;20.30;49.10;;;;;;8238701;28;20471;-49
2021/10/04 16:39:32;;;;;;;1.00;0.80;;;20.30;49.10;;;;;;8237930;28;20833;-50
2021/10/04 16:43:34;;;;;;;1.37;0.83;;;20.30;49.10;;;;;;8238241;28;20106;-48
2021/10/04 16:47:34;;;;;;;;;;;20.30;49.20;;;;;;8238201;28;20031;-49
2021/10/04 16:51:35;;;;;;;2.17;0.60;;;20.30;49.20;;;;;;8238465;28;19917;-51
2021/10/04 16:55:35;;;;;;;3.93;1.07;;;20.30;49.20;;;;;;8238147;28;20051;-52
2021/10/04 16:59:36;;;;;;;0.82;0.70;;;20.30;49.20;;;;;;8237495;28;20294;-50
2021/10/04 17:03:38;;;;;;;1.50;0.85;;;20.30;49.20;;;;;;8252806;28;20039;-49
2021/10/04 17:07:39;;;;;;;2.28;0.82;;;20.30;49.20;;;;;;8238045;28;20488;-52
2021/10/04 17:11:39;;;;;;;5.32;0.90;;;20.30;49.30;;;;;;8235977;28;20105;-48
2021/10/04 17:15:40;;;;;;;1.30;0.70;;;20.30;49.30;;;;;;8237212;28;20054;-48
2021/10/04 17:19:40;;;;;;;1.00;0.80;;;20.30;49.30;;;;;;8237321;28;20039;-49
2021/10/04 17:23:41;;;;;;;1.33;0.80;;;20.30;49.30;;;;;;8236544;28;20062;-48
2021/10/04 17:27:42;;;;;;;1.07;0.80;;;20.30;49.30;;;;;;8237628;28;20031;-51
2021/10/04 17:31:42;;;;;;;1.67;1.10;;;20.30;49.30;;;;;;8236970;28;20043;-50
2021/10/04 17:35:43;;;;;;;1.23;0.90;;;20.30;49.30;;;;;;8236466;28;20067;-49
2021/10/04 17:39:43;;;;;;;2.37;1.30;;;20.30;49.30;;;;;;8234521;28;20045;-51
2021/10/04 17:43:44;;;;;;;0.87;0.80;;;20.30;49.30;;;;;;8237094;28;20046;-51
2021/10/04 17:47:45;;;;;;;2.20;0.80;;;20.30;49.30;;;;;;8235911;28;20101;-49
2021/10/04 17:51:46;;;;;;;2.28;1.10;;;20.30;49.20;;;;;;8236333;28;20035;-49
2021/10/04 17:55:47;;;;;;;1.50;0.80;;;20.30;49.30;;;;;;8235710;28;20065;-48
2021/10/04 17:59:47;;;;;;;1.85;0.82;;;20.30;49.30;;;;;;8236151;28;20504;-49
2021/10/04 18:03:47;;;;;;;1.10;0.67;;;20.30;49.30;;;;;;8235936;28;20400;-49
2021/10/04 18:07:48;;;;;;;0.70;0.70;;;20.30;49.40;;;;;;8235664;28;20054;-48
2021/10/04 18:11:48;;;;;;;1.63;1.10;;;20.30;49.30;;;;;;8235323;28;20373;-48
2021/10/04 18:15:49;;;;;;;1.40;0.87;;;20.30;49.30;;;;;;8235391;28;20039;-48
2021/10/04 18:19:49;;;;;;;0.80;0.80;;;20.30;49.30;;;;;;8236252;28;20039;-49
2021/10/04 18:23:51;;;;;;;1.10;0.87;;;20.30;49.30;;;;;;8234912;28;20496;-49
2021/10/04 18:27:51;;;;;;;;;;;20.30;49.30;;;;;;8235736;28;20034;-48
2021/10/04 18:31:52;;;;;;;;;;;20.20;49.30;;;;;;8235463;28;19914;-49
2021/10/04 18:35:52;;;;;;;;;;;20.30;49.40;;;;;;8235682;28;19976;-49
2021/10/04 18:39:53;;;;;;;;;;;20.30;49.30;;;;;;8235342;28;20365;-48
2021/10/04 18:43:53;;;;;;;;;;;20.20;49.30;;;;;;8235154;28;19921;-48
2021/10/04 18:47:54;;;;;;;;;;;20.30;49.30;;;;;;8234805;28;20340;-50
2021/10/04 18:51:55;;;;;;;;;;;20.30;49.30;;;;;;8236105;28;20005;-49
2021/10/04 18:55:55;;;;;;;;;;;20.30;49.30;;;;;;8235103;28;19922;-48
2021/10/04 18:59:56;;;;;;;;;;;20.30;49.30;;;;;;8234491;28;19921;-50
2021/10/04 19:03:56;;;;;;;;;;;20.30;49.30;;;;;;8233921;28;19921;-49
2021/10/04 19:07:57;;;;;;;;;;;20.30;49.20;;;;;;8234331;28;20381;-50
2021/10/04 19:11:57;;;;;;;;;;;20.30;49.30;;;;;;8234746;28;19917;-52
2021/10/04 19:15:58;;;;;;;;;;;20.30;49.30;;;;;;8234288;28;19961;-51
2021/10/04 19:19:58;;;;;;;;;;;20.30;49.30;;;;;;8233912;28;19960;-49
2021/10/04 19:23:59;;;;;;;;;;;20.20;49.20;;;;;;8233591;28;19962;-48
2021/10/04 19:27:59;;;;;;;;;;;20.20;49.20;;;;;;8234798;28;19936;-49
2021/10/04 19:32:00;;;;;;;;;;;20.30;49.30;;;;;;8233905;28;19918;-50
2021/10/04 19:36:00;;;;;;;;;;;20.30;49.30;;;;;;8233201;28;19922;-48
2021/10/04 19:40:06;;;;;;;;;;;20.30;49.30;;;;;;8234131;28;20359;-51
2021/10/04 19:44:07;;;;;;;;;;;20.20;49.20;;;;;;8233793;28;20268;-48
2021/10/04 19:48:07;;;;;;;;;;;20.30;49.20;;;;;;8233979;28;19949;-49
2021/10/04 19:52:08;;;;;;;;;;;20.30;49.20;;;;;;8233807;28;19918;-52
2021/10/04 19:56:14;;;;;;;;;;;20.30;49.20;;;;;;8233248;28;19953;-52
2021/10/04 20:00:16;;;;;;;;;;;20.20;49.20;;;;;;8232465;28;20447;-50
2021/10/04 20:04:17;;;;;;;;;;;20.30;49.20;;;;;;8234250;28;20260;-49
2021/10/04 20:08:18;;;;;;;;;;;20.30;49.30;;;;;;8233139;28;19914;-48
2021/10/04 20:12:18;;;;;;;;;;;20.30;49.20;;;;;;8232712;28;19914;-51
2021/10/04 20:16:19;;;;;;;;;;;20.20;49.20;;;;;;8232779;28;19922;-50
2021/10/04 20:20:19;;;;;;;;;;;20.30;49.20;;;;;;8233906;28;19914;-49
2021/10/04 20:24:28;;;;;;;;;;;20.30;49.20;;;;;;8232446;28;19976;-52
2021/10/04 20:28:28;;;;;;;;;;;20.20;49.20;;;;;;8233117;28;20008;-49
2021/10/04 20:32:29;;;;;;;;;;;20.20;49.20;;;;;;8232819;28;19918;-49
2021/10/04 20:36:30;;;;;;;;;;;20.20;49.20;;;;;;8232171;28;19926;-49
2021/10/04 20:40:30;;;;;;;;;;;20.20;49.20;;;;;;8233534;28;19914;-48
2021/10/04 20:44:31;;;;;;;;;;;20.20;49.20;;;;;;8232579;28;19937;-50
2021/10/04 20:48:32;;;;;;;;;;;20.20;49.20;;;;;;8232125;28;19921;-49
2021/10/04 20:52:32;;;;;;;;;;;20.20;49.20;;;;;;8232764;28;19984;-49
2021/10/04 20:56:32;;;;;;;;;;;20.20;49.20;;;;;;8233227;28;19922;-49
2021/10/04 21:00:34;;;;;;;;;;;20.20;49.30;;;;;;8232154;28;20296;-48
2021/10/04 21:04:35;;;;;;;;;;;20.20;49.20;;;;;;8232533;28;19925;-50
2021/10/04 21:08:36;;;;;;;;;;;20.20;49.20;;;;;;8231716;28;19921;-50
2021/10/04 21:12:36;;;;;;;;;;;20.20;49.20;;;;;;8232990;28;19914;-50
2021/10/04 21:16:37;;;;;;;;;;;20.20;49.20;;;;;;8238737;28;20044;-49